createdAt,value
2023-05-19T00:01:31.169Z,9.63
2023-05-19T00:04:02.888Z,9.57
2023-05-19T00:06:32.219Z,9.18
2023-05-19T00:09:09.964Z,8.57
2023-05-19T00:11:38.536Z,12.40
2023-05-19T00:14:10.046Z,11.45
2023-05-19T00:16:38.083Z,10.88
2023-05-19T00:19:06.662Z,10.88
2023-05-19T00:21:33.792Z,9.60
2023-05-19T00:24:01.337Z,11.23
2023-05-19T00:26:28.444Z,9.32
2023-05-19T00:29:02.551Z,9.35
2023-05-19T00:31:30.106Z,12.13
2023-05-19T00:33:58.142Z,11.30
2023-05-19T00:36:26.442Z,9.57
2023-05-19T00:38:53.666Z,13.00
2023-05-19T00:41:21.154Z,10.57
2023-05-19T00:43:48.206Z,10.18
2023-05-19T00:46:15.591Z,11.97
2023-05-19T00:48:44.806Z,10.10
2023-05-19T00:51:16.949Z,8.38
2023-05-19T00:53:49.334Z,11.50
2023-05-19T00:56:17.497Z,10.98
2023-05-19T00:58:46.186Z,8.77
2023-05-19T01:01:17.233Z,10.20
2023-05-19T01:03:45.093Z,11.10
2023-05-19T01:06:12.986Z,9.77
2023-05-19T01:08:42.224Z,10.70
2023-05-19T01:11:09.296Z,11.57
2023-05-19T01:13:36.991Z,10.48
2023-05-19T01:16:16.153Z,11.95
2023-05-19T01:19:01.962Z,10.07
2023-05-19T01:21:36.989Z,10.63
2023-05-19T01:24:23.027Z,11.20
2023-05-19T01:27:11.930Z,9.52
2023-05-19T01:29:44.685Z,10.95
2023-05-19T01:32:13.354Z,13.55
2023-05-19T01:34:44.225Z,11.00
2023-05-19T01:37:13.271Z,12.23
2023-05-19T01:39:41.514Z,12.02
2023-05-19T01:42:09.689Z,9.77
2023-05-19T01:44:37.659Z,11.70
2023-05-19T01:47:05.815Z,13.57
2023-05-19T01:49:32.947Z,11.10
2023-05-19T01:51:59.971Z,9.02
2023-05-19T01:54:27.510Z,12.05
2023-05-19T01:57:13.074Z,9.90
2023-05-19T02:00:05.627Z,14.13
2023-05-19T02:03:00.086Z,14.10
2023-05-19T02:05:31.530Z,12.75
2023-05-19T02:08:30.999Z,8.82
2023-05-19T02:11:04.358Z,8.88
2023-05-19T02:13:36.692Z,10.35
2023-05-19T02:16:06.073Z,13.70
2023-05-19T02:18:34.184Z,11.80
2023-05-19T02:21:02.362Z,13.68
2023-05-19T02:23:29.469Z,14.20
2023-05-19T02:25:57.684Z,11.20
2023-05-19T02:28:28.594Z,11.77
2023-05-19T02:30:55.753Z,10.68
2023-05-19T02:33:26.662Z,10.55
2023-05-19T02:35:53.775Z,10.30
2023-05-19T02:38:21.926Z,9.77
2023-05-19T02:40:53.045Z,13.47
2023-05-19T02:43:20.318Z,11.20
2023-05-19T02:45:47.378Z,13.63
2023-05-19T02:48:14.810Z,12.05
2023-05-19T02:50:43.110Z,12.60
2023-05-19T02:53:10.157Z,12.10
2023-05-19T02:55:37.589Z,7.85
2023-05-19T02:58:05.343Z,9.35
2023-05-19T03:00:32.810Z,13.57
2023-05-19T03:03:02.828Z,12.52
2023-05-19T03:05:31.233Z,11.43
2023-05-19T03:07:58.447Z,13.02
2023-05-19T03:10:25.463Z,9.68
2023-05-19T03:12:52.658Z,9.98
2023-05-19T03:15:21.003Z,11.38
2023-05-19T03:17:48.243Z,14.37
2023-05-19T03:20:15.895Z,11.32
2023-05-19T03:22:43.679Z,12.57
2023-05-19T03:25:10.948Z,11.80
2023-05-19T03:27:38.284Z,14.65
2023-05-19T03:30:07.054Z,13.80
2023-05-19T03:32:40.471Z,12.50
2023-05-19T03:35:07.948Z,12.95
2023-05-19T03:37:34.963Z,12.70
2023-05-19T03:40:04.196Z,11.20
2023-05-19T03:42:31.933Z,13.77
2023-05-19T03:44:59.312Z,10.93
2023-05-19T03:47:27.096Z,13.15
2023-05-19T03:50:11.957Z,14.18
2023-05-19T03:52:48.931Z,12.73
2023-05-19T03:55:30.445Z,15.90
2023-05-19T03:57:57.768Z,14.27
2023-05-19T04:00:24.702Z,11.25
2023-05-19T04:02:52.444Z,14.00
2023-05-19T04:05:19.559Z,13.52
2023-05-19T04:07:46.960Z,16.53
2023-05-19T04:10:19.337Z,14.65
2023-05-19T04:12:48.096Z,14.90
2023-05-19T04:15:16.373Z,12.82
2023-05-19T04:17:43.515Z,12.68
2023-05-19T04:20:12.956Z,13.50
2023-05-19T04:22:40.066Z,12.50
2023-05-19T04:25:09.084Z,15.98
2023-05-19T04:27:39.325Z,16.80
2023-05-19T04:30:07.733Z,15.30
2023-05-19T04:32:37.656Z,17.47
2023-05-19T04:35:05.927Z,15.23
2023-05-19T04:37:33.116Z,16.25
2023-05-19T04:40:01.621Z,11.77
2023-05-19T04:42:30.913Z,15.07
2023-05-19T04:45:00.547Z,11.20
2023-05-19T04:47:30.204Z,12.63
2023-05-19T04:50:01.288Z,14.10
2023-05-19T04:52:29.002Z,11.50
2023-05-19T04:54:56.262Z,13.80
2023-05-19T04:57:25.135Z,15.10
2023-05-19T04:59:53.035Z,12.95
2023-05-19T05:02:21.808Z,13.05
2023-05-19T05:04:49.084Z,14.02
2023-05-19T05:07:17.206Z,17.38
2023-05-19T05:09:45.145Z,15.27
2023-05-19T05:12:13.600Z,16.17
2023-05-19T05:14:41.967Z,13.20
2023-05-19T05:17:11.766Z,15.95
2023-05-19T05:19:39.168Z,12.88
2023-05-19T05:22:08.481Z,20.50
2023-05-19T05:24:39.289Z,11.73
2023-05-19T05:27:08.295Z,14.57
2023-05-19T05:29:35.701Z,13.13
2023-05-19T05:32:05.089Z,11.45
2023-05-19T05:34:32.832Z,10.93
2023-05-19T05:36:59.917Z,12.52
2023-05-19T05:39:28.561Z,14.60
2023-05-19T05:41:56.110Z,11.88
2023-05-19T05:44:23.062Z,14.60
2023-05-19T05:46:51.004Z,13.63
2023-05-19T05:49:18.480Z,14.82
2023-05-19T05:51:57.868Z,15.80
2023-05-19T05:54:34.127Z,13.75
2023-05-19T05:57:02.663Z,18.08
2023-05-19T05:59:30.175Z,12.40
2023-05-19T06:01:57.535Z,14.75
2023-05-19T06:04:25.794Z,12.25
2023-05-19T06:07:01.432Z,11.73
2023-05-19T06:09:33.029Z,12.45
2023-05-19T06:12:01.013Z,19.10
2023-05-19T06:14:32.741Z,14.00
2023-05-19T06:17:17.828Z,16.02
2023-05-19T06:19:44.973Z,12.75
2023-05-19T06:22:11.939Z,11.23
2023-05-19T06:24:39.659Z,11.93
2023-05-19T06:27:09.160Z,11.77
2023-05-19T06:29:36.144Z,11.75
2023-05-19T06:32:06.216Z,11.60
2023-05-19T06:34:33.501Z,9.40
2023-05-19T06:37:02.698Z,9.07
2023-05-19T06:39:31.644Z,13.07
2023-05-19T06:41:58.698Z,12.35
2023-05-19T06:44:44.501Z,15.70
2023-05-19T06:47:12.518Z,8.40
2023-05-19T06:49:39.512Z,12.73
2023-05-19T06:52:07.013Z,11.65
2023-05-19T06:54:34.517Z,13.25
2023-05-19T06:57:02.374Z,8.48
2023-05-19T06:59:29.502Z,13.82
2023-05-19T07:01:56.679Z,10.23
2023-05-19T07:04:24.203Z,12.65
2023-05-19T07:06:51.410Z,10.90
2023-05-19T07:09:18.800Z,10.23
2023-05-19T07:11:47.004Z,14.10
2023-05-19T07:14:13.892Z,10.23
2023-05-19T07:16:41.524Z,11.35
2023-05-19T07:19:08.783Z,9.18
2023-05-19T07:21:36.422Z,12.48
2023-05-19T07:24:04.144Z,12.57
2023-05-19T07:26:31.314Z,10.13
2023-05-19T07:28:59.522Z,8.80
2023-05-19T07:31:26.805Z,18.25
2023-05-19T07:33:54.888Z,9.70
2023-05-19T07:36:22.122Z,11.25
2023-05-19T07:38:49.377Z,9.03
2023-05-19T07:41:16.537Z,7.13
2023-05-19T07:43:43.915Z,9.23
2023-05-19T07:46:11.002Z,9.50
2023-05-19T07:48:38.107Z,9.75
2023-05-19T07:51:05.368Z,7.73
2023-05-19T07:53:32.428Z,8.63
2023-05-19T07:55:59.622Z,16.00
2023-05-19T07:58:27.066Z,9.98
2023-05-19T08:00:56.736Z,9.30
2023-05-19T08:03:24.052Z,7.00
2023-05-19T08:05:51.482Z,10.85
2023-05-19T08:08:19.789Z,8.73
2023-05-19T08:13:28.376Z,9.40
2023-05-19T08:15:59.841Z,6.50
2023-05-19T08:18:27.315Z,8.57
2023-05-19T08:20:54.846Z,7.72
2023-05-19T08:23:22.508Z,10.43
2023-05-19T08:25:49.583Z,5.80
2023-05-19T08:28:16.613Z,7.40
2023-05-19T08:30:43.890Z,5.43
2023-05-19T08:33:11.066Z,7.40
2023-05-19T08:35:38.686Z,6.20
2023-05-19T08:38:06.961Z,7.72
2023-05-19T08:40:37.105Z,6.27
2023-05-19T08:43:05.011Z,6.88
2023-05-19T08:45:38.759Z,4.85
2023-05-19T08:51:13.910Z,5.68
2023-05-19T08:53:45.332Z,7.13
2023-05-19T08:56:20.660Z,6.93
2023-05-19T08:58:51.334Z,7.00
2023-05-19T09:01:20.078Z,6.13
2023-05-19T09:03:49.736Z,6.32
2023-05-19T09:06:17.070Z,7.30
2023-05-19T09:08:44.553Z,6.05
2023-05-19T09:11:11.964Z,6.95
2023-05-19T09:13:40.417Z,5.70
2023-05-19T09:16:08.379Z,6.10
2023-05-19T09:18:39.311Z,7.17
2023-05-19T09:21:07.438Z,5.93
2023-05-19T09:23:34.829Z,6.68
2023-05-19T09:26:08.597Z,8.40
2023-05-19T09:28:37.058Z,5.03
2023-05-19T09:31:04.976Z,9.00
2023-05-19T09:33:35.507Z,5.60
2023-05-19T09:36:03.571Z,8.88
2023-05-19T09:38:31.013Z,5.60
2023-05-19T09:41:00.434Z,7.07
2023-05-19T09:43:31.844Z,8.27
2023-05-19T09:46:14.821Z,6.15
2023-05-19T09:48:42.594Z,10.18
2023-05-19T09:51:12.715Z,5.93
2023-05-19T09:53:39.976Z,6.70
2023-05-19T09:56:08.873Z,6.57
2023-05-19T09:58:36.544Z,7.85
2023-05-19T10:01:05.053Z,7.95
2023-05-19T10:03:33.471Z,6.03
2023-05-19T10:06:02.223Z,8.02
2023-05-19T10:08:30.850Z,5.13
2023-05-19T10:10:58.487Z,6.70
2023-05-19T10:13:26.994Z,4.22
2023-05-19T10:15:58.765Z,6.32
2023-05-19T10:18:30.086Z,7.18
2023-05-19T10:20:58.962Z,9.70
2023-05-19T10:23:26.267Z,6.25
2023-05-19T10:25:56.994Z,6.43
2023-05-19T10:28:28.130Z,6.50
2023-05-19T10:30:59.406Z,5.72
2023-05-19T10:33:47.185Z,6.60
2023-05-19T10:36:36.434Z,4.85
2023-05-19T10:39:13.620Z,6.85
2023-05-19T10:41:53.897Z,5.68
2023-05-19T10:44:23.730Z,7.32
2023-05-19T10:46:51.714Z,6.20
2023-05-19T10:49:22.992Z,10.07
2023-05-19T10:51:52.497Z,4.88
2023-05-19T10:54:40.840Z,5.45
2023-05-19T10:57:08.709Z,4.90
2023-05-19T10:59:39.971Z,5.97
2023-05-19T11:02:08.828Z,5.28
2023-05-19T11:04:51.808Z,5.13
2023-05-19T11:07:21.006Z,6.35
2023-05-19T11:09:52.495Z,8.75
2023-05-19T11:12:24.742Z,7.20
2023-05-19T11:14:55.903Z,8.07
2023-05-19T11:17:25.631Z,6.70
2023-05-19T11:19:54.853Z,7.93
2023-05-19T11:22:26.745Z,4.90
2023-05-19T11:24:56.599Z,5.37
2023-05-19T11:27:34.346Z,4.50
2023-05-19T11:30:20.188Z,5.05
2023-05-19T11:32:50.607Z,4.32
2023-05-19T11:35:21.095Z,5.57
2023-05-19T11:37:51.329Z,4.90
2023-05-19T11:40:18.579Z,6.00
2023-05-19T11:42:45.523Z,6.07
2023-05-19T11:45:12.446Z,7.57
2023-05-19T11:47:56.340Z,10.13
2023-05-19T11:50:26.691Z,4.43
2023-05-19T11:52:54.668Z,5.20
2023-05-19T11:55:22.829Z,5.97
2023-05-19T11:58:04.993Z,6.55
2023-05-19T12:00:38.073Z,6.20
2023-05-19T12:03:05.834Z,5.77
2023-05-19T12:05:38.035Z,5.43
2023-05-19T12:08:07.655Z,8.40
2023-05-19T12:10:35.900Z,6.00
2023-05-19T12:13:03.467Z,5.65
2023-05-19T12:15:32.510Z,4.67
2023-05-19T12:18:03.135Z,6.47
2023-05-19T12:20:36.043Z,4.65
2023-05-19T12:23:04.104Z,5.55
2023-05-19T12:25:31.930Z,6.97
2023-05-19T12:28:05.683Z,6.70
2023-05-19T12:30:34.841Z,5.63
2023-05-19T12:33:03.105Z,4.70
2023-05-19T12:35:33.636Z,7.07
2023-05-19T12:38:07.522Z,7.25
2023-05-19T12:40:35.716Z,4.97
2023-05-19T12:43:03.985Z,7.65
2023-05-19T12:45:39.681Z,6.47
2023-05-19T12:48:11.741Z,6.47
2023-05-19T12:50:39.109Z,8.48
2023-05-19T12:53:09.388Z,6.23
2023-05-19T12:55:44.028Z,6.10
2023-05-19T12:58:16.134Z,7.53
2023-05-19T13:00:45.467Z,5.75
2023-05-19T13:03:20.101Z,8.80
2023-05-19T13:05:49.354Z,5.83
2023-05-19T13:08:18.406Z,7.65
2023-05-19T13:10:47.000Z,5.05
2023-05-19T13:13:14.788Z,6.40
2023-05-19T13:15:43.477Z,7.05
2023-05-19T13:18:13.140Z,8.83
2023-05-19T13:20:42.244Z,7.25
2023-05-19T13:23:12.631Z,6.72
2023-05-19T13:25:40.424Z,6.70
2023-05-19T13:28:08.419Z,6.78
2023-05-19T13:30:37.051Z,5.80
2023-05-19T13:33:04.250Z,5.82
2023-05-19T13:35:37.145Z,8.70
2023-05-19T13:38:10.304Z,6.07
2023-05-19T13:40:38.379Z,5.68
2023-05-19T13:43:06.306Z,6.53
2023-05-19T13:45:33.320Z,7.53
2023-05-19T13:48:00.340Z,8.85
2023-05-19T13:50:27.249Z,8.57
2023-05-19T13:52:54.212Z,6.60
2023-05-19T13:55:21.848Z,9.23
2023-05-19T13:57:49.596Z,6.38
2023-05-19T14:00:18.228Z,8.43
2023-05-19T14:02:45.507Z,6.82
2023-05-19T14:05:12.654Z,5.75
2023-05-19T14:07:39.832Z,8.63
2023-05-19T14:10:07.474Z,8.55
2023-05-19T14:12:51.717Z,7.00
2023-05-19T14:15:23.836Z,8.60
2023-05-19T14:17:50.970Z,5.57
2023-05-19T14:20:17.925Z,5.90
2023-05-19T14:22:44.879Z,7.10
2023-05-19T14:25:11.755Z,6.88
2023-05-19T14:27:40.270Z,6.82
2023-05-19T14:30:08.322Z,7.38
2023-05-19T14:35:02.375Z,6.38
2023-05-19T14:37:29.167Z,5.70
2023-05-19T14:39:57.766Z,7.97
2023-05-19T14:42:25.049Z,5.75
2023-05-19T14:44:51.968Z,6.70
2023-05-19T14:47:18.921Z,6.53
2023-05-19T14:49:46.270Z,5.70
2023-05-19T14:52:13.357Z,6.82
2023-05-19T14:54:40.575Z,6.07
2023-05-19T14:57:08.187Z,7.73
2023-05-19T14:59:38.412Z,5.88
2023-05-19T15:02:05.745Z,6.07
2023-05-19T15:04:32.595Z,6.38
2023-05-19T15:09:32.604Z,8.67
2023-05-19T15:12:01.215Z,6.45
2023-05-19T15:14:30.104Z,5.90
2023-05-19T15:16:57.989Z,8.05
2023-05-19T15:19:25.138Z,7.00
2023-05-19T15:21:52.123Z,6.73
2023-05-19T15:24:19.179Z,5.55
2023-05-19T15:26:46.203Z,5.10
2023-05-19T15:29:14.144Z,7.40
2023-05-19T15:31:41.357Z,6.53
2023-05-19T15:34:08.439Z,15.80
2023-05-19T15:36:35.582Z,18.42
2023-05-19T15:39:03.839Z,8.30
2023-05-19T15:41:30.760Z,7.20
2023-05-19T15:44:00.205Z,6.78
2023-05-19T15:46:27.441Z,11.77
2023-05-19T15:48:54.555Z,6.75
2023-05-19T15:51:21.542Z,5.70
2023-05-19T15:53:48.571Z,7.15
2023-05-19T15:56:15.875Z,6.25
2023-05-19T15:58:42.701Z,6.57
2023-05-19T16:01:09.826Z,6.68
2023-05-19T16:03:36.834Z,7.10
2023-05-19T16:06:04.123Z,7.05
2023-05-19T16:08:31.175Z,4.20
2023-05-19T16:10:58.056Z,6.97
2023-05-19T16:13:25.049Z,5.95
2023-05-19T16:15:52.592Z,9.10
2023-05-19T16:18:19.762Z,7.45
2023-05-19T16:20:46.628Z,6.25
2023-05-19T16:23:13.443Z,5.07
2023-05-19T16:25:41.457Z,5.95
2023-05-19T16:28:08.609Z,8.32
2023-05-19T16:30:35.845Z,6.15
2023-05-19T16:33:03.047Z,5.32
2023-05-19T16:35:30.180Z,6.70
2023-05-19T16:37:57.146Z,7.53
2023-05-19T16:40:24.308Z,8.77
2023-05-19T16:42:53.151Z,7.25
2023-05-19T16:45:20.097Z,6.85
2023-05-19T16:47:47.002Z,7.03
2023-05-19T16:50:13.992Z,6.95
2023-05-19T16:52:40.843Z,5.60
2023-05-19T16:55:08.121Z,6.57
2023-05-19T16:57:35.066Z,6.35
2023-05-19T17:00:01.939Z,7.20
2023-05-19T17:02:28.911Z,4.97
2023-05-19T17:04:55.913Z,7.55
2023-05-19T17:07:22.726Z,5.95
2023-05-19T17:09:49.566Z,6.45
2023-05-19T17:12:16.458Z,7.93
2023-05-19T17:14:44.131Z,9.93
2023-05-19T17:17:11.078Z,8.80
2023-05-19T17:19:37.908Z,8.30
2023-05-19T17:22:05.041Z,7.10
2023-05-19T17:24:33.307Z,6.43
2023-05-19T17:27:00.861Z,6.85
2023-05-19T17:29:28.037Z,7.78
2023-05-19T17:31:55.459Z,6.28
2023-05-19T17:34:22.557Z,6.45
2023-05-19T17:36:52.138Z,6.10
2023-05-19T17:39:20.292Z,11.13
2023-05-19T17:41:47.243Z,7.57
2023-05-19T17:44:14.874Z,9.95
2023-05-19T17:46:41.691Z,8.23
2023-05-19T17:49:10.580Z,12.30
2023-05-19T17:51:37.757Z,8.70
2023-05-19T17:54:05.366Z,7.88
2023-05-19T17:56:36.928Z,8.82
2023-05-19T17:59:03.974Z,6.72
2023-05-19T18:01:32.270Z,10.43
2023-05-19T18:03:59.348Z,8.63
2023-05-19T18:06:27.778Z,8.00
2023-05-19T18:08:58.096Z,7.68
2023-05-19T18:11:26.397Z,10.10
2023-05-19T18:13:53.336Z,9.57
2023-05-19T18:16:20.288Z,9.27
2023-05-19T18:18:50.442Z,9.20
2023-05-19T18:21:18.201Z,8.43
2023-05-19T18:23:45.819Z,9.90
2023-05-19T18:26:13.246Z,9.77
2023-05-19T18:28:41.187Z,8.32
2023-05-19T18:31:17.390Z,12.02
2023-05-19T18:33:45.089Z,10.00
2023-05-19T18:36:12.360Z,9.35
2023-05-19T18:38:39.569Z,8.27
2023-05-19T18:41:07.337Z,9.75
2023-05-19T18:43:34.472Z,10.55
2023-05-19T18:46:01.443Z,8.82
2023-05-19T18:48:29.666Z,9.15
2023-05-19T18:50:57.230Z,9.07
2023-05-19T18:53:24.133Z,12.05
2023-05-19T18:55:51.031Z,8.80
2023-05-19T18:58:18.768Z,11.18
2023-05-19T19:00:45.790Z,11.63
2023-05-19T19:03:12.844Z,9.23
2023-05-19T19:05:40.122Z,10.05
2023-05-19T19:08:07.129Z,11.73
2023-05-19T19:10:37.317Z,14.82
2023-05-19T19:13:04.214Z,14.85
2023-05-19T19:15:31.704Z,12.53
2023-05-19T19:17:58.556Z,11.60
2023-05-19T19:20:25.499Z,15.60
2023-05-19T19:22:52.945Z,11.32
2023-05-19T19:25:21.896Z,10.55
2023-05-19T19:27:50.079Z,9.27
2023-05-19T19:30:16.967Z,11.10
2023-05-19T19:32:43.923Z,10.57
2023-05-19T19:35:11.267Z,9.18
2023-05-19T19:37:38.275Z,11.30
2023-05-19T19:40:06.185Z,10.43
2023-05-19T19:42:33.167Z,12.90
2023-05-19T19:45:00.234Z,11.05
2023-05-19T19:47:27.457Z,10.98
2023-05-19T19:49:54.336Z,12.55
2023-05-19T19:52:21.156Z,13.40
2023-05-19T19:54:48.198Z,11.50
2023-05-19T19:57:17.216Z,11.45
2023-05-19T19:59:44.132Z,13.02
2023-05-19T20:02:11.209Z,10.02
2023-05-19T20:04:38.380Z,12.23
2023-05-19T20:07:05.325Z,12.05
2023-05-19T20:09:32.168Z,14.75
2023-05-19T20:12:00.515Z,10.43
2023-05-19T20:14:27.382Z,14.68
2023-05-19T20:16:54.286Z,11.23
2023-05-19T20:19:21.596Z,12.50
2023-05-19T20:21:48.492Z,13.05
2023-05-19T20:24:15.399Z,12.43
2023-05-19T20:26:42.258Z,10.32
2023-05-19T20:29:09.185Z,9.57
2023-05-19T20:31:36.113Z,9.90
2023-05-19T20:34:03.054Z,12.07
2023-05-19T20:36:30.063Z,9.13
2023-05-19T20:38:57.007Z,9.10
2023-05-19T20:41:23.820Z,8.07
2023-05-19T20:43:51.013Z,18.35
2023-05-19T20:46:18.040Z,11.40
2023-05-19T20:48:44.927Z,12.88
2023-05-19T20:51:11.827Z,10.48
2023-05-19T20:53:38.789Z,10.87
2023-05-19T20:56:06.863Z,8.07
2023-05-19T20:58:33.741Z,11.48
2023-05-19T21:01:00.700Z,11.75
2023-05-19T21:03:28.620Z,14.85
2023-05-19T21:05:56.451Z,8.70
2023-05-19T21:08:24.164Z,11.00
2023-05-19T21:10:51.210Z,9.82
2023-05-19T21:13:18.606Z,9.15
2023-05-19T21:15:45.543Z,11.15
2023-05-19T21:18:12.944Z,10.77
2023-05-19T21:20:40.016Z,7.45
2023-05-19T21:23:07.010Z,9.40
2023-05-19T21:25:34.483Z,10.32
2023-05-19T21:28:02.051Z,11.90
2023-05-19T21:30:28.852Z,10.73
2023-05-19T21:32:55.820Z,11.35
2023-05-19T21:35:22.770Z,12.35
2023-05-19T21:37:49.617Z,11.52
2023-05-19T21:40:16.510Z,12.60
2023-05-19T21:42:43.377Z,10.07
2023-05-19T21:45:10.690Z,14.50
2023-05-19T21:47:37.698Z,8.48
2023-05-19T21:50:04.897Z,8.13
2023-05-19T21:52:31.748Z,10.82
2023-05-19T21:54:58.843Z,8.87
2023-05-19T21:57:25.711Z,16.02
2023-05-19T21:59:52.535Z,11.20
2023-05-19T22:02:19.433Z,12.20
2023-05-19T22:04:46.385Z,9.30
2023-05-19T22:07:13.313Z,10.43
2023-05-19T22:09:40.157Z,9.38
2023-05-19T22:12:07.642Z,10.52
2023-05-19T22:14:35.158Z,11.32
2023-05-19T22:17:02.533Z,9.57
2023-05-19T22:19:29.511Z,9.23
2023-05-19T22:22:09.912Z,10.73
2023-05-19T22:24:41.535Z,9.30
2023-05-19T22:27:08.934Z,8.82
2023-05-19T22:29:38.711Z,9.73
2023-05-19T22:32:09.228Z,10.60
2023-05-19T22:34:36.246Z,9.55
2023-05-19T22:37:03.664Z,9.77
2023-05-19T22:39:30.663Z,8.93
2023-05-19T22:41:57.690Z,12.57
2023-05-19T22:44:24.547Z,11.67
2023-05-19T22:46:51.407Z,7.53
2023-05-19T22:49:18.781Z,8.95
2023-05-19T22:51:46.104Z,8.20
2023-05-19T22:54:13.105Z,9.45
2023-05-19T22:56:40.061Z,9.60
2023-05-19T22:59:06.986Z,12.50
2023-05-19T23:01:33.992Z,8.75
2023-05-19T23:04:01.304Z,7.47
2023-05-19T23:06:28.290Z,9.27
2023-05-19T23:09:02.895Z,10.80
2023-05-19T23:11:30.253Z,9.05
2023-05-19T23:13:57.094Z,9.98
2023-05-19T23:16:24.093Z,7.35
2023-05-19T23:18:51.022Z,8.75
2023-05-19T23:21:18.016Z,8.27
2023-05-19T23:23:44.922Z,7.68
2023-05-19T23:26:13.425Z,8.73
2023-05-19T23:28:42.229Z,9.55
2023-05-19T23:31:09.799Z,10.48
2023-05-19T23:33:36.958Z,11.80
2023-05-19T23:36:08.698Z,9.43
2023-05-19T23:38:36.912Z,10.77
2023-05-19T23:41:03.826Z,9.65
2023-05-19T23:43:32.768Z,9.00
2023-05-19T23:46:00.220Z,11.60
2023-05-19T23:48:28.745Z,9.02
2023-05-19T23:50:55.767Z,11.75
2023-05-19T23:53:22.701Z,8.95
2023-05-19T23:55:49.713Z,10.23
2023-05-19T23:58:16.563Z,9.43
